Time;durP1;ratioP1;P1;durP2;ratioP2;P2;SDS_P1;SDS_P2;PMS_P1;PMS_P2;Temp;Humidity;BMP_temperature;BMP_pressure;BME280_temperature;BME280_humidity;BME280_pressure;Samples;Min_cycle;Max_cycle;Signal;HPM_P1;HPM_P2
2023/04/17 00:00:07;;;;;;;;;6.50;3.50;;;;;13.51;41.94;102011.09;5053849;28;46336;-69
2023/04/17 00:02:37;;;;;;;;;2.67;1.00;;;;;13.17;42.02;101954.44;5035732;28;45467;-70
2023/04/17 00:05:02;;;;;;;;;5.50;4.25;;;;;13.41;41.39;101994.69;5033567;28;46680;-70
2023/04/17 00:07:28;;;;;;;;;2.00;2.00;;;;;13.41;41.81;102000.06;5046642;28;45554;-70
2023/04/17 00:09:53;;;;;;;;;6.75;5.00;;;;;13.42;42.50;101999.19;5044348;28;45549;-70
2023/04/17 00:12:18;;;;;;;;;8.75;4.75;;;;;13.35;42.49;101994.47;5052653;28;45443;-69
2023/04/17 00:14:44;;;;;;;;;5.25;5.25;;;;;13.40;41.82;101991.97;5046033;28;54212;-70
2023/04/17 00:17:09;;;;;;;;;6.00;6.00;;;;;13.40;42.43;102000.91;5051344;28;45534;-70
2023/04/17 00:19:34;;;;;;;;;8.25;5.25;;;;;13.32;42.09;101975.56;5052787;28;45475;-71
2023/04/17 00:22:00;;;;;;;;;6.50;4.75;;;;;13.33;41.90;101982.78;5052155;28;46259;-71
2023/04/17 00:24:25;;;;;;;;;4.50;4.50;;;;;13.19;42.33;101957.19;5051555;28;63351;-69
2023/04/17 00:26:50;;;;;;;;;5.75;5.00;;;;;13.30;41.89;101982.63;5046745;28;51113;-70
2023/04/17 00:29:15;;;;;;;;;6.50;5.00;;;;;13.25;42.71;101979.78;5060225;28;45280;-70
2023/04/17 00:31:41;;;;;;;;;6.50;5.50;;;;;13.23;42.73;101976.13;5052277;28;55523;-70
2023/04/17 00:34:06;;;;;;;;;6.00;6.00;;;;;13.23;42.85;101989.56;5052503;28;46049;-69
2023/04/17 00:36:32;;;;;;;;;7.00;7.00;;;;;13.21;42.58;101993.03;5053138;28;45316;-69
2023/04/17 00:38:58;;;;;;;;;7.00;6.00;;;;;13.18;42.77;101976.81;5039525;28;45812;-69
2023/04/17 00:41:23;;;;;;;;;5.75;5.75;;;;;13.21;43.50;101976.94;5045610;28;45550;-70
2023/04/17 00:43:49;;;;;;;;;10.25;6.50;;;;;13.18;43.01;101990.25;5048348;28;45490;-69
2023/04/17 00:46:15;;;;;;;;;5.00;5.00;;;;;13.16;43.00;101971.41;5052400;28;45390;-69
2023/04/17 00:48:42;;;;;;;;;5.00;5.00;;;;;13.15;43.17;101974.97;5052966;28;45675;-70
2023/04/17 00:51:08;;;;;;;;;7.50;5.00;;;;;13.16;43.99;101976.75;5053932;28;45663;-70
2023/04/17 00:53:35;;;;;;;;;7.50;6.75;;;;;13.15;43.00;101969.59;5029244;28;46441;-70
2023/04/17 00:56:04;;;;;;;;;13.75;8.25;;;;;13.11;43.19;101964.97;5056034;28;45541;-68
2023/04/17 00:58:29;;;;;;;;;7.00;6.75;;;;;12.99;43.81;101951.13;5057184;28;45485;-68
2023/04/17 01:00:55;;;;;;;;;5.50;5.50;;;;;13.11;43.53;101966.75;5048481;28;45517;-70
2023/04/17 01:03:21;;;;;;;;;6.50;6.50;;;;;13.07;44.50;101957.69;5055765;28;46109;-69
2023/04/17 01:05:49;;;;;;;;;7.00;5.25;;;;;13.07;44.52;101963.94;5055918;28;45298;-70
2023/04/17 01:08:15;;;;;;;;;9.25;6.25;;;;;12.97;43.73;101944.75;5047210;28;46764;-70
2023/04/17 01:10:40;;;;;;;;;9.25;8.00;;;;;13.04;44.19;101955.78;5055357;28;45309;-70
2023/04/17 01:13:06;;;;;;;;;8.25;7.00;;;;;13.01;44.40;101952.09;5048451;28;45532;-69
2023/04/17 01:15:33;;;;;;;;;6.00;6.00;;;;;13.02;44.81;101957.50;5054646;28;45471;-70
2023/04/17 01:17:59;;;;;;;;;8.00;7.25;;;;;12.97;44.57;101947.44;5049517;28;45426;-70
2023/04/17 01:20:29;;;;;;;;;6.75;6.00;;;;;12.93;45.10;101934.81;5046405;28;45305;-70
2023/04/17 01:22:55;;;;;;;;;6.50;5.00;;;;;12.97;44.36;101951.06;5049715;28;47393;-70
2023/04/17 01:25:21;;;;;;;;;6.00;6.00;;;;;12.89;44.64;101947.19;5055616;28;45482;-70
2023/04/17 01:27:46;;;;;;;;;5.50;5.50;;;;;12.92;45.20;101952.69;5035673;28;45662;-70
2023/04/17 01:30:12;;;;;;;;;6.00;6.00;;;;;12.89;44.32;101956.13;5028727;28;45712;-70
2023/04/17 01:32:37;;;;;;;;;6.25;6.25;;;;;12.90;44.60;101949.00;5052729;28;46013;-70
2023/04/17 01:35:03;;;;;;;;;5.75;5.75;;;;;12.73;45.75;101926.94;5030685;28;45699;-70
2023/04/17 01:37:28;;;;;;;;;5.00;4.00;;;;;12.89;44.75;101957.94;5049780;28;45510;-70
2023/04/17 01:39:54;;;;;;;;;7.50;7.00;;;;;12.86;45.28;101952.44;5055654;28;45384;-70
2023/04/17 01:42:20;;;;;;;;;8.00;6.00;;;;;12.84;45.49;101957.75;5053116;28;45334;-69
2023/04/17 01:44:45;;;;;;;;;8.00;7.50;;;;;12.80;45.62;101952.22;5039592;28;45515;-70
2023/04/17 01:47:11;;;;;;;;;6.00;5.25;;;;;12.78;45.31;101944.09;5051640;28;45437;-70
2023/04/17 01:49:36;;;;;;;;;6.00;6.00;;;;;12.73;46.02;101943.94;5043119;28;49377;-69
2023/04/17 01:52:01;;;;;;;;;8.50;7.00;;;;;12.68;45.32;101944.63;5036610;28;46671;-71
2023/04/17 01:54:27;;;;;;;;;9.50;7.75;;;;;12.70;45.17;101943.84;5055255;28;45334;-70
2023/04/17 01:56:52;;;;;;;;;9.25;6.25;;;;;12.77;45.26;101963.75;5035976;28;45427;-68
2023/04/17 01:59:18;;;;;;;;;7.50;6.50;;;;;12.64;45.88;101942.72;5055251;28;45261;-69
2023/04/17 02:01:44;;;;;;;;;8.00;6.25;;;;;12.72;45.88;101962.69;5046937;28;45529;-70
2023/04/17 02:04:09;;;;;;;;;5.00;5.00;;;;;12.64;45.73;101953.44;5054217;28;45606;-70
2023/04/17 02:06:35;;;;;;;;;10.00;8.75;;;;;12.61;45.86;101948.84;5054983;28;45394;-69
2023/04/17 02:09:00;;;;;;;;;6.50;6.50;;;;;12.69;45.77;101966.13;5055350;28;45503;-70
2023/04/17 02:11:26;;;;;;;;;9.50;8.50;;;;;12.59;46.02;101957.69;5054592;28;45466;-69
2023/04/17 02:13:51;;;;;;;;;7.25;7.25;;;;;12.45;46.47;101933.06;5055000;28;45336;-69
2023/04/17 02:16:20;;;;;;;;;7.50;7.50;;;;;12.62;45.88;101955.13;5049372;28;45472;-68
2023/04/17 02:18:46;;;;;;;;;7.75;7.00;;;;;12.46;45.88;101924.16;5048602;28;45399;-69
2023/04/17 02:21:12;;;;;;;;;12.25;10.75;;;;;12.59;46.74;101955.00;5054809;28;45311;-69
2023/04/17 02:23:37;;;;;;;;;10.75;7.50;;;;;12.53;46.86;101955.69;5041860;28;45379;-70
2023/04/17 02:26:03;;;;;;;;;9.25;9.25;;;;;12.46;46.33;101948.28;5044220;28;45282;-69
2023/04/17 02:28:28;;;;;;;;;10.25;9.75;;;;;12.42;47.31;101955.28;5054813;28;45291;-69
2023/04/17 02:30:54;;;;;;;;;9.75;8.00;;;;;12.30;47.50;101936.06;5054356;28;45421;-69
2023/04/17 02:33:20;;;;;;;;;11.25;8.50;;;;;12.32;48.15;101937.97;5043281;28;45288;-69
2023/04/17 02:35:45;;;;;;;;;8.25;8.25;;;;;12.33;47.80;101945.13;5049603;28;45617;-69
2023/04/17 02:38:11;;;;;;;;;10.00;8.75;;;;;12.34;48.06;101946.97;5048293;28;45454;-70
2023/04/17 02:40:37;;;;;;;;;11.25;9.50;;;;;12.26;47.47;101942.13;5048157;28;46096;-70
2023/04/17 02:43:02;;;;;;;;;10.25;8.00;;;;;12.25;47.76;101941.25;5054404;28;45697;-69
2023/04/17 02:45:27;;;;;;;;;9.50;7.00;;;;;12.20;47.66;101939.25;5044211;28;45481;-68
2023/04/17 02:47:53;;;;;;;;;7.50;7.50;;;;;11.90;47.92;101895.22;5054556;28;45714;-68
2023/04/17 02:50:18;;;;;;;;;13.75;10.00;;;;;12.21;47.96;101943.72;5054229;28;46190;-68
2023/04/17 02:52:43;;;;;;;;;8.25;8.25;;;;;12.14;47.98;101942.59;5047323;28;45529;-69
2023/04/17 02:55:09;;;;;;;;;11.50;9.75;;;;;12.19;48.02;101954.38;5054896;28;45484;-69
2023/04/17 02:57:34;;;;;;;;;11.75;11.75;;;;;12.20;47.91;101947.28;5054558;28;45532;-69
2023/04/17 03:00:00;;;;;;;;;13.00;9.50;;;;;12.14;47.82;101938.16;5035363;28;46900;-69
2023/04/17 03:02:28;;;;;;;;;7.50;7.00;;;;;12.17;47.83;101943.59;5053778;28;45479;-69
2023/04/17 03:04:54;;;;;;;;;12.00;9.00;;;;;12.18;47.94;101941.88;5033505;28;45628;-69
2023/04/17 03:07:22;;;;;;;;;9.75;8.75;;;;;12.13;48.64;101933.63;5052837;28;45406;-69
2023/04/17 03:09:48;;;;;;;;;7.25;7.25;;;;;12.12;47.58;101937.16;5047764;28;46198;-69
2023/04/17 03:12:15;;;;;;;;;10.75;10.00;;;;;12.17;47.89;101948.06;5049760;28;45461;-70
2023/04/17 03:14:41;;;;;;;;;12.75;10.25;;;;;12.18;48.39;101941.88;5053079;28;45510;-69
2023/04/17 03:17:08;;;;;;;;;9.00;7.75;;;;;12.09;47.96;101931.72;5053962;28;45354;-69
2023/04/17 03:19:33;;;;;;;;;11.50;8.75;;;;;11.98;48.25;101917.88;5041202;28;45466;-69
2023/04/17 03:22:00;;;;;;;;;12.50;9.00;;;;;12.06;48.08;101931.59;5053184;28;45612;-69
2023/04/17 03:24:26;;;;;;;;;9.50;8.00;;;;;12.02;47.93;101931.41;5060153;28;45626;-69
2023/04/17 03:26:51;;;;;;;;;11.75;9.75;;;;;12.08;48.43;101939.69;5050586;28;45584;-70
2023/04/17 03:29:16;;;;;;;;;11.25;9.75;;;;;12.02;48.73;101937.66;5048552;28;46167;-70
2023/04/17 03:31:42;;;;;;;;;13.00;11.50;;;;;12.06;49.35;101942.31;5053603;28;45462;-71
2023/04/17 03:34:07;;;;;;;;;8.50;8.00;;;;;11.94;48.85;101917.69;5053980;28;45811;-69
2023/04/17 03:36:32;;;;;;;;;9.50;8.50;;;;;11.98;49.18;101930.38;5053958;28;45440;-70
2023/04/17 03:38:58;;;;;;;;;15.50;11.75;;;;;11.92;48.57;101944.41;5049493;28;52231;-68
2023/04/17 03:41:23;;;;;;;;;9.50;9.50;;;;;11.76;48.49;101924.13;5047857;28;45494;-68
2023/04/17 03:43:48;;;;;;;;;12.50;12.50;;;;;11.82;49.54;101949.31;5053586;28;45650;-70
2023/04/17 03:46:14;;;;;;;;;9.75;9.00;;;;;11.80;49.23;101943.91;5053794;28;45495;-70
2023/04/17 03:48:40;;;;;;;;;11.25;10.25;;;;;11.67;49.75;101933.53;5053257;28;45910;-69
2023/04/17 03:51:05;;;;;;;;;10.00;9.50;;;;;11.70;49.76;101947.06;5053010;28;47044;-69
2023/04/17 03:53:30;;;;;;;;;12.25;11.00;;;;;11.69;49.92;101940.78;5053915;28;45581;-70
2023/04/17 03:55:55;;;;;;;;;11.00;11.00;;;;;11.78;49.32;101959.91;5032634;28;45447;-70
2023/04/17 03:58:21;;;;;;;;;12.50;11.75;;;;;11.83;50.01;101953.81;5033803;28;55793;-69
2023/04/17 04:00:48;;;;;;;;;20.25;14.75;;;;;11.84;49.37;101956.53;5047168;28;45537;-68
2023/04/17 04:03:14;;;;;;;;;12.25;10.25;;;;;11.83;50.13;101957.41;5043656;28;45421;-69
2023/04/17 04:05:39;;;;;;;;;13.00;12.25;;;;;11.68;50.13;101946.06;5036155;28;45489;-71
2023/04/17 04:08:05;;;;;;;;;10.50;9.50;;;;;11.72;50.29;101958.75;5034763;28;46791;-70
2023/04/17 04:10:31;;;;;;;;;11.75;10.25;;;;;11.74;50.97;101967.75;5047334;28;45509;-69
2023/04/17 04:12:56;;;;;;;;;14.50;12.75;;;;;11.75;50.56;101962.44;5042809;28;45221;-68
2023/04/17 04:15:22;;;;;;;;;14.50;11.75;;;;;11.64;50.56;101953.06;5052809;28;45679;-69
2023/04/17 04:17:47;;;;;;;;;16.00;12.75;;;;;11.64;50.74;101960.19;5043611;28;45810;-69
2023/04/17 04:20:12;;;;;;;;;16.50;14.50;;;;;11.43;51.56;101937.94;5038847;28;45585;-69
2023/04/17 04:22:38;;;;;;;;;11.50;10.00;;;;;11.65;51.36;101960.25;5053339;28;45543;-70
2023/04/17 04:25:04;;;;;;;;;15.00;12.50;;;;;11.65;51.43;101962.94;5052241;28;45382;-68
2023/04/17 04:27:31;;;;;;;;;12.00;12.00;;;;;11.66;51.71;101962.06;5052805;28;46071;-70
2023/04/17 04:30:00;;;;;;;;;18.25;14.75;;;;;11.67;51.09;101960.31;5054430;28;45536;-70
2023/04/17 04:32:26;;;;;;;;;12.75;11.00;;;;;11.69;51.63;101959.50;5056085;28;45501;-68
2023/04/17 04:34:55;;;;;;;;;13.25;12.50;;;;;11.70;51.58;101964.03;5056465;28;45424;-69
2023/04/17 04:37:20;;;;;;;;;18.75;16.25;;;;;11.73;51.65;101971.25;5056439;28;45566;-69
2023/04/17 04:39:52;;;;;;;;;21.75;19.50;;;;;11.75;51.93;101973.16;5051558;28;45301;-70
2023/04/17 04:42:20;;;;;;;;;15.25;14.25;;;;;11.79;51.62;101972.41;5040893;28;45379;-71
2023/04/17 04:44:46;;;;;;;;;21.50;19.75;;;;;11.81;51.74;101972.47;5056673;28;45723;-70
2023/04/17 04:47:12;;;;;;;;;17.25;16.25;;;;;11.79;52.38;101967.06;5052121;28;46176;-71
2023/04/17 04:49:37;;;;;;;;;14.75;13.00;;;;;11.78;51.15;101970.59;5034957;28;45702;-69
2023/04/17 04:52:02;;;;;;;;;16.50;15.00;;;;;11.79;52.07;101982.22;5050168;28;45511;-71
2023/04/17 04:54:28;;;;;;;;;15.25;14.50;;;;;11.80;52.35;101976.94;5054201;28;45352;-70
2023/04/17 04:56:53;;;;;;;;;24.75;20.50;;;;;11.77;52.08;101976.81;5054675;28;45532;-70
2023/04/17 04:59:18;;;;;;;;;23.00;20.75;;;;;11.75;52.10;101967.81;5052223;28;45496;-69
2023/04/17 05:01:44;;;;;;;;;21.00;16.00;;;;;11.53;52.11;101931.22;5050356;28;45382;-70
2023/04/17 05:04:09;;;;;;;;;21.50;18.25;;;;;11.85;52.38;101974.44;5029888;28;45325;-70
2023/04/17 05:06:35;;;;;;;;;22.50;17.50;;;;;11.86;51.92;101978.03;5028608;28;48036;-70
2023/04/17 05:09:00;;;;;;;;;21.75;17.50;;;;;11.47;52.89;101914.00;5052968;28;45545;-71
2023/04/17 05:11:26;;;;;;;;;23.25;18.50;;;;;11.73;52.18;101961.47;5054330;28;45368;-69
2023/04/17 05:13:51;;;;;;;;;27.25;19.00;;;;;11.79;52.69;101976.88;5049918;28;45464;-69
2023/04/17 05:16:16;;;;;;;;;27.50;21.00;;;;;11.75;52.87;101973.16;5055635;28;46788;-70
2023/04/17 05:18:43;;;;;;;;;16.75;15.00;;;;;11.74;52.59;101976.66;5054966;28;45632;-69
2023/04/17 05:21:08;;;;;;;;;20.00;16.50;;;;;11.72;53.17;101978.38;5063106;28;45401;-70
2023/04/17 05:23:33;;;;;;;;;20.25;20.25;;;;;11.59;53.28;101960.00;5073833;28;45237;-70
2023/04/17 05:25:59;;;;;;;;;29.25;22.25;;;;;11.70;53.43;101982.75;5066181;28;45227;-70
2023/04/17 05:28:26;;;;;;;;;20.25;17.75;;;;;11.68;52.94;101963.06;5072362;28;45153;-70
2023/04/17 05:30:51;;;;;;;;;23.50;19.00;;;;;11.72;53.69;101981.06;5054875;28;45390;-69
2023/04/17 05:33:16;;;;;;;;;22.25;19.75;;;;;11.72;53.06;101977.47;5066233;28;46577;-68
2023/04/17 05:35:42;;;;;;;;;22.75;19.50;;;;;11.79;53.70;101991.16;5054089;28;46569;-70
2023/04/17 05:38:07;;;;;;;;;24.00;21.00;;;;;11.78;53.55;101983.09;5064396;28;44971;-69
2023/04/17 05:40:33;;;;;;;;;22.00;22.00;;;;;11.78;53.42;101975.06;5066632;28;44957;-70
2023/04/17 05:43:08;;;;;;;;;28.50;23.75;;;;;11.80;53.50;101982.28;5072835;28;44895;-69
2023/04/17 05:45:34;;;;;;;;;20.25;18.00;;;;;11.86;53.87;101983.38;5064416;28;45139;-69
2023/04/17 05:47:59;;;;;;;;;26.75;26.75;;;;;11.87;53.47;101978.09;5047878;28;44991;-69
2023/04/17 05:50:25;;;;;;;;;24.75;24.75;;;;;11.92;54.61;101986.34;5066747;28;44918;-70
2023/04/17 05:52:50;;;;;;;;;18.50;17.00;;;;;12.01;53.49;101988.50;5059311;28;45295;-70
2023/04/17 05:55:16;;;;;;;;;30.50;23.00;;;;;12.01;53.69;101985.81;5063860;28;45356;-68
2023/04/17 05:57:41;;;;;;;;;22.25;19.75;;;;;12.03;53.76;101985.03;5058673;28;45178;-70
2023/04/17 06:00:11;;;;;;;;;32.75;26.50;;;;;12.01;53.61;101976.03;5062696;28;45025;-69
2023/04/17 06:02:37;;;;;;;;;35.25;26.75;;;;;12.03;53.39;101979.69;5051303;28;45486;-72
2023/04/17 06:05:05;;;;;;;;;30.00;23.75;;;;;12.06;53.97;101973.50;5069992;28;45750;-74
2023/04/17 06:07:32;;;;;;;;;30.25;25.00;;;;;12.16;53.83;101998.06;5068284;28;45084;-76
2023/04/17 06:09:58;;;;;;;;;28.50;23.00;;;;;11.83;53.29;101927.97;5057216;28;45183;-73
2023/04/17 06:12:23;;;;;;;;;25.75;22.75;;;;;12.09;53.74;101979.94;5054926;28;45097;-73
2023/04/17 06:14:49;;;;;;;;;26.50;23.00;;;;;11.90;53.28;101950.53;5056634;28;45654;-73
2023/04/17 06:17:14;;;;;;;;;25.00;21.50;;;;;11.94;54.53;101979.28;5062125;28;45435;-74
2023/04/17 06:19:40;;;;;;;;;29.00;26.00;;;;;11.93;55.02;101997.13;5064294;28;45489;-75
2023/04/17 06:22:05;;;;;;;;;31.00;22.50;;;;;11.98;54.40;102000.00;5057293;28;45254;-76
2023/04/17 06:24:30;;;;;;;;;31.00;24.25;;;;;12.02;53.99;101995.69;5064796;28;45848;-76
2023/04/17 06:26:56;;;;;;;;;30.00;25.75;;;;;12.04;54.00;101996.66;5060046;28;45115;-74
2023/04/17 06:29:22;;;;;;;;;30.50;25.50;;;;;11.94;54.37;101966.81;5047372;28;45449;-74
2023/04/17 06:31:47;;;;;;;;;28.75;23.25;;;;;12.16;54.96;102003.41;5042889;28;45562;-73
2023/04/17 06:34:13;;;;;;;;;27.25;23.25;;;;;12.22;54.92;102007.19;5054634;28;45943;-75
2023/04/17 06:36:38;;;;;;;;;37.00;31.75;;;;;12.22;55.08;102000.06;5044014;28;45556;-76
2023/04/17 06:39:03;;;;;;;;;32.25;26.75;;;;;12.22;54.86;102005.41;5054240;28;50793;-74
2023/04/17 06:41:29;;;;;;;;;38.00;31.25;;;;;12.24;54.70;102005.47;5051599;28;45481;-72
2023/04/17 06:43:54;;;;;;;;;34.00;24.75;;;;;12.22;55.10;102004.50;5044912;28;45906;-74
2023/04/17 06:46:23;;;;;;;;;35.50;31.50;;;;;12.25;54.41;102007.31;5048099;28;45512;-75
2023/04/17 06:48:51;;;;;;;;;31.75;27.25;;;;;12.27;55.03;102006.50;5054532;28;45405;-71
2023/04/17 06:51:20;;;;;;;;;28.00;21.75;;;;;12.29;55.63;102014.63;5043158;28;45471;-72
2023/04/17 06:53:48;;;;;;;;;29.50;27.25;;;;;12.28;54.67;102010.13;5054341;28;45485;-74
2023/04/17 06:56:14;;;;;;;;;33.75;31.00;;;;;12.25;55.20;102005.53;5035809;28;50146;-74
2023/04/17 06:58:43;;;;;;;;;28.50;25.50;;;;;12.33;55.19;102016.56;5036570;28;45460;-74
2023/04/17 07:01:10;;;;;;;;;34.25;26.75;;;;;12.22;55.63;102007.19;5054077;28;45517;-75
2023/04/17 07:03:35;;;;;;;;;39.75;29.00;;;;;12.33;55.23;102011.22;5036008;28;47871;-72
2023/04/17 07:06:00;;;;;;;;;37.00;32.25;;;;;12.37;55.92;102023.88;5049553;28;45387;-77
2023/04/17 07:08:26;;;;;;;;;34.00;31.50;;;;;12.37;56.11;102014.94;5049082;28;48564;-74
2023/04/17 07:10:51;;;;;;;;;40.75;29.50;;;;;12.25;55.30;102002.88;5036147;28;45466;-77
2023/04/17 07:13:16;;;;;;;;;51.00;37.25;;;;;12.41;55.39;102027.63;5053688;28;46472;-72
2023/04/17 07:15:42;;;;;;;;;46.25;34.25;;;;;12.30;55.53;102006.63;5047769;28;45572;-74
2023/04/17 07:18:07;;;;;;;;;53.50;39.00;;;;;12.45;55.65;102027.75;5041739;28;45379;-72
2023/04/17 07:20:33;;;;;;;;;51.50;41.00;;;;;12.50;56.12;102036.91;5053107;28;45583;-73
2023/04/17 07:22:58;;;;;;;;;40.25;33.00;;;;;12.52;55.60;102040.56;5056987;28;46462;-74
2023/04/17 07:25:24;;;;;;;;;34.50;32.00;;;;;12.59;55.36;102033.69;5046894;28;45344;-69
2023/04/17 07:27:49;;;;;;;;;37.00;29.50;;;;;12.42;54.98;102005.28;5057855;28;45500;-72
2023/04/17 07:30:14;;;;;;;;;36.25;31.25;;;;;12.57;55.60;102024.66;5055086;28;46568;-75
2023/04/17 07:32:40;;;;;;;;;40.25;33.75;;;;;12.38;55.60;101982.84;5054557;28;46564;-69
2023/04/17 07:35:06;;;;;;;;;50.75;39.75;;;;;12.62;55.38;102035.56;5055527;28;45451;-70
2023/04/17 07:37:33;;;;;;;;;47.25;35.50;;;;;12.71;55.57;102042.19;5040472;28;45370;-70
2023/04/17 07:39:59;;;;;;;;;43.25;32.75;;;;;12.72;55.10;102041.34;5050899;28;45508;-73
2023/04/17 07:42:24;;;;;;;;;46.75;35.50;;;;;12.77;55.63;102043.28;5030953;28;46328;-75
2023/04/17 07:44:49;;;;;;;;;38.25;31.00;;;;;12.62;54.77;102015.03;5053701;28;45493;-71
2023/04/17 07:47:15;;;;;;;;;42.50;32.50;;;;;12.71;55.42;102028.78;5051010;28;45256;-71
2023/04/17 07:49:40;;;;;;;;;35.50;31.50;;;;;12.87;55.51;102057.09;5049821;28;45376;-72
2023/04/17 07:52:05;;;;;;;;;41.50;33.00;;;;;12.85;54.72;102037.38;5048561;28;45726;-71
2023/04/17 07:54:31;;;;;;;;;34.75;31.00;;;;;12.93;55.60;102045.69;5055233;28;45284;-71
2023/04/17 07:56:56;;;;;;;;;36.75;30.50;;;;;12.84;55.20;102030.16;5042183;28;45437;-71
2023/04/17 07:59:22;;;;;;;;;37.75;31.25;;;;;12.94;55.27;102049.28;5053462;28;45476;-73
2023/04/17 08:01:48;;;;;;;;;61.00;47.25;;;;;12.96;54.72;102051.16;5052733;28;46190;-70
2023/04/17 08:04:13;;;;;;;;;35.75;32.75;;;;;12.96;55.49;102047.59;5017394;28;45597;-70
2023/04/17 08:06:39;;;;;;;;;38.00;33.00;;;;;12.97;55.58;102054.75;5045239;28;45461;-72
2023/04/17 08:09:05;;;;;;;;;38.75;31.00;;;;;12.84;55.71;102026.59;5053395;28;45443;-72
2023/04/17 08:11:31;;;;;;;;;41.50;34.50;;;;;13.00;55.36;102054.88;5052755;28;45365;-71
2023/04/17 08:13:56;;;;;;;;;37.25;30.75;;;;;13.03;55.36;102055.00;5041878;28;45316;-71
2023/04/17 08:16:22;;;;;;;;;40.25;32.00;;;;;12.84;55.03;102026.59;5053251;28;46430;-72
2023/04/17 08:18:47;;;;;;;;;46.75;32.50;;;;;13.03;55.83;102052.31;5047214;28;45434;-73
2023/04/17 08:21:13;;;;;;;;;40.50;33.75;;;;;13.01;55.10;102049.56;5043899;28;46185;-72
2023/04/17 08:23:41;;;;;;;;;37.75;32.25;;;;;12.94;56.13;102033.19;5048277;28;45579;-72
2023/04/17 08:26:06;;;;;;;;;36.25;31.00;;;;;13.03;56.00;102049.63;5048398;28;45480;-73
2023/04/17 08:28:32;;;;;;;;;39.25;33.25;;;;;12.95;55.45;102026.97;5045477;28;45563;-80
2023/04/17 08:30:57;;;;;;;;;35.25;30.50;;;;;13.15;55.67;102055.47;5057218;28;46389;-80
2023/04/17 08:33:23;;;;;;;;;39.75;34.00;;;;;13.18;55.55;102060.94;5063708;28;45574;-81
2023/04/17 08:35:50;;;;;;;;;43.25;32.50;;;;;13.16;55.09;102056.38;5050167;28;45540;-83
2023/04/17 08:38:18;;;;;;;;;42.75;35.00;;;;;12.35;55.74;101905.00;5025540;22;45552;-81
2023/04/17 08:40:57;;;;;;;;;61.25;45.50;;;;;12.77;55.53;101971.81;5013504;22;47647;-80
2023/04/17 08:43:27;;;;;;;;;44.75;36.00;;;;;11.99;54.90;101833.06;5033527;28;45526;-79
2023/04/17 08:45:54;;;;;;;;;46.00;35.50;;;;;13.30;54.92;102059.53;5020879;28;45541;-77
2023/04/17 08:48:20;;;;;;;;;42.25;36.00;;;;;12.67;54.77;101942.78;5025020;28;45701;-79
2023/04/17 08:50:48;;;;;;;;;52.75;40.00;;;;;12.99;55.03;101986.00;5026685;28;45506;-79
2023/04/17 08:53:14;;;;;;;;;44.50;33.75;;;;;13.07;54.68;101996.13;5020288;28;45406;-80
2023/04/17 08:55:40;;;;;;;;;46.00;35.50;;;;;13.42;54.27;102050.19;5030683;28;45245;-78
2023/04/17 08:58:07;;;;;;;;;41.25;34.25;;;;;13.42;54.45;102039.47;5028595;28;45620;-78
2023/04/17 09:00:41;;;;;;;;;46.50;39.00;;;;;13.15;54.98;101987.44;5019367;28;47367;-81
2023/04/17 09:03:15;;;;;;;;;44.50;37.00;;;;;12.45;54.55;101858.00;5029869;28;45832;-82
2023/04/17 09:05:44;;;;;;;;;46.25;36.25;;;;;13.34;54.83;101991.72;5029299;28;45541;-79
2023/04/17 09:08:21;;;;;;;;;45.50;35.25;;;;;13.05;54.16;101920.06;5031214;28;45524;-80
2023/04/17 09:10:48;;;;;;;;;49.25;40.00;;;;;13.76;53.42;102047.75;5032819;28;45625;-81
2023/04/17 09:13:16;;;;;;;;;48.00;38.25;;;;;13.59;53.60;102017.66;5034714;28;45527;-74
2023/04/17 09:15:46;;;;;;;;;41.50;35.50;;;;;13.86;54.11;102044.56;5035987;28;45467;-75
2023/04/17 09:18:29;;;;;;;;;49.25;34.75;;;;;13.84;53.21;102016.69;5023759;28;45476;-74
2023/04/17 09:20:56;;;;;;;;;49.00;40.00;;;;;13.95;53.22;102022.44;5029297;28;45605;-73
2023/04/17 09:23:22;;;;;;;;;44.50;34.75;;;;;14.07;53.39;102038.97;5037705;28;45871;-74
2023/04/17 09:26:08;;;;;;;;;50.00;36.00;;;;;14.11;52.98;102034.63;5035745;28;45508;-74
2023/04/17 09:28:40;;;;;;;;;44.75;36.25;;;;;14.18;52.57;102045.59;5027172;28;45419;-74
2023/04/17 09:31:17;;;;;;;;;48.25;39.50;;;;;14.23;52.66;102044.84;5033773;28;46471;-74
2023/04/17 09:33:57;;;;;;;;;44.50;35.50;;;;;14.23;53.04;102029.63;5031525;28;45529;-73
2023/04/17 09:36:25;;;;;;;;;49.00;38.50;;;;;13.95;52.72;101984.84;5036598;28;45807;-73
2023/04/17 09:38:51;;;;;;;;;47.25;36.25;;;;;14.32;52.52;102046.06;5014098;28;46380;-73
2023/04/17 09:41:26;;;;;;;;;52.00;39.00;;;;;14.33;52.47;102045.19;5033336;28;45852;-75
2023/04/17 09:44:00;;;;;;;;;49.75;35.75;;;;;14.26;52.40;102042.25;5027489;28;45383;-75
2023/04/17 09:46:31;;;;;;;;;47.00;38.25;;;;;14.25;52.48;102045.81;5026406;28;45537;-74
2023/04/17 09:49:38;;;;;;;;;49.00;35.50;;;;;14.21;52.82;102039.44;5039754;28;45378;-75
2023/04/17 09:52:05;;;;;;;;;45.75;37.75;;;;;14.25;52.88;102045.81;5026510;28;45628;-76
2023/04/17 09:54:37;;;;;;;;;46.75;35.75;;;;;14.22;53.12;102038.53;5029494;28;45682;-75
2023/04/17 09:57:07;;;;;;;;;51.75;36.50;;;;;14.04;52.56;102009.31;5026392;28;45570;-76
2023/04/17 09:59:33;;;;;;;;;53.00;38.00;;;;;14.26;53.02;102039.56;5010127;28;45720;-76
2023/04/17 10:02:00;;;;;;;;;40.50;31.75;;;;;13.76;53.04;101943.94;5035699;28;46244;-75
2023/04/17 10:04:27;;;;;;;;;46.00;36.50;;;;;14.09;52.46;101994.25;5026982;28;45504;-75
2023/04/17 10:06:56;;;;;;;;;56.75;44.00;;;;;14.31;52.71;102037.94;5035829;28;45504;-75
2023/04/17 10:09:22;;;;;;;;;53.00;37.50;;;;;14.43;52.77;102049.06;5018092;28;45388;-77
2023/04/17 10:11:48;;;;;;;;;48.75;39.00;;;;;14.46;52.28;102043.78;5034562;28;45457;-76
2023/04/17 10:14:30;;;;;;;;;48.75;38.75;;;;;14.42;52.60;102049.94;5037600;28;45537;-78
2023/04/17 10:16:56;;;;;;;;;43.50;37.50;;;;;14.33;52.88;102033.53;5046455;28;45477;-80
2023/04/17 10:19:26;;;;;;;;;45.75;35.50;;;;;14.46;52.45;102038.41;5031556;28;45435;-78
2023/04/17 10:22:20;;;;;;;;;40.75;34.50;;;;;14.44;52.60;102039.25;5035920;28;46434;-79
2023/04/17 10:24:53;;;;;;;;;44.75;35.25;;;;;14.10;52.64;101966.50;5038793;28;45697;-80
2023/04/17 10:27:27;;;;;;;;;49.50;39.50;;;;;14.57;52.64;102036.97;5038062;28;45299;-78
2023/04/17 10:30:01;;;;;;;;;48.50;37.50;;;;;14.30;52.73;101979.66;5037936;28;45473;-78
2023/04/17 10:32:28;;;;;;;;;46.50;38.50;;;;;14.49;52.56;102008.94;5046073;28;45107;-77
2023/04/17 10:35:03;;;;;;;;;42.75;35.25;;;;;13.82;52.39;101887.72;5043679;28;45434;-79
2023/04/17 10:37:46;;;;;;;;;45.50;36.00;;;;;14.62;52.25;102030.84;5038835;28;45470;-79
2023/04/17 10:40:20;;;;;;;;;43.00;32.25;;;;;14.62;52.45;102021.00;5040291;28;45496;-77
2023/04/17 10:43:00;;;;;;;;;46.25;36.25;;;;;14.61;52.31;102031.72;5046786;28;46553;-79
2023/04/17 10:45:53;;;;;;;;;51.75;36.00;;;;;14.08;52.35;101944.03;5033172;28;45527;-77
2023/04/17 10:48:28;;;;;;;;;50.75;39.75;;;;;14.19;52.64;101957.84;5042028;28;45284;-77
2023/04/17 10:50:55;;;;;;;;;51.25;41.00;;;;;14.60;52.44;102027.19;5033117;28;45675;-78
2023/04/17 10:53:44;;;;;;;;;50.25;38.25;;;;;14.34;52.89;101976.22;5032086;28;46012;-78
2023/04/17 10:56:18;;;;;;;;;48.25;38.00;;;;;14.30;52.56;101971.59;5032191;28;45384;-76
2023/04/17 10:59:04;;;;;;;;;44.25;36.50;;;;;13.88;52.43;101905.81;5030451;28;45643;-79
2023/04/17 11:01:30;;;;;;;;;48.50;36.75;;;;;14.55;52.49;102027.97;5033540;28;45486;-76
2023/04/17 11:04:21;;;;;;;;;48.25;37.50;;;;;14.52;52.59;102022.47;5033767;28;45458;-81
2023/04/17 11:06:48;;;;;;;;;49.00;37.00;;;;;14.11;52.59;101946.84;5019404;28;45706;-80
2023/04/17 11:09:14;;;;;;;;;48.75;38.75;;;;;14.26;52.47;101983.13;5031263;28;45530;-77
2023/04/17 11:11:41;;;;;;;;;40.75;33.00;;;;;13.74;52.05;101883.91;5046317;28;45292;-78
2023/04/17 11:14:09;;;;;;;;;48.75;37.50;;;;;14.55;52.19;102017.19;5057487;28;45279;-77